Time;durP1;ratioP1;P1;durP2;ratioP2;P2;SDS_P1;SDS_P2;PMS_P1;PMS_P2;Temp;Humidity;BMP_temperature;BMP_pressure;BME280_temperature;BME280_humidity;BME280_pressure;Samples;Min_cycle;Max_cycle;Signal;HPM_P1;HPM_P2
2022/11/29 00:01:38;;;;;;;;;;;;;;;;;;5091719;28;19918;-82
2022/11/29 00:04:04;;;;;;;;;;;;;;;;;;5101121;28;20006;-82
2022/11/29 00:06:29;;;;;;;;;;;;;;;;;;5096695;28;19923;-83
2022/11/29 00:08:54;;;;;;;;;;;;;;;;;;5101529;28;19911;-82
2022/11/29 00:14:04;;;;;;;;;;;;;;;;;;5113235;28;20496;-83
2022/11/29 00:16:29;;;;;;;;;;;;;;;;;;5090380;28;20033;-85
2022/11/29 00:18:54;;;;;;;;;;;;;;;;;;5085708;28;19942;-83
2022/11/29 00:21:19;;;;;;;;;;;;;;;;;;5083149;28;19919;-84
2022/11/29 00:23:44;;;;;;;;;;;;;;;;;;5090697;28;19920;-84
2022/11/29 00:26:09;;;;;;;;;;;;;;;;;;5084729;28;19966;-83
2022/11/29 00:28:34;;;;;;;;;;;;;;;;;;5109497;28;20366;-83
2022/11/29 00:30:59;;;;;;;;;;;;;;;;;;5092061;28;19916;-84
2022/11/29 00:33:25;;;;;;;;;;;;;;;;;;5085678;28;19942;-83
2022/11/29 00:35:53;;;;;;;;;;;;;;;;;;5088973;28;19916;-83
2022/11/29 00:38:18;;;;;;;;;;;;;;;;;;5093514;28;19912;-83
2022/11/29 00:40:43;;;;;;;;;;;;;;;;;;5088446;28;19927;-83
2022/11/29 00:43:08;;;;;;;;;;;;;;;;;;5090489;28;19913;-84
2022/11/29 00:45:33;;;;;;;;;;;;;;;;;;5099663;28;19911;-83
2022/11/29 00:47:58;;;;;;;;;;;;;;;;;;5093640;28;20085;-83
2022/11/29 00:50:24;;;;;;;;;;;;;;;;;;5113922;28;19912;-82
2022/11/29 00:52:49;;;;;;;;;;;;;;;;;;5092344;28;19962;-82
2022/11/29 00:55:14;;;;;;;;;;;;;;;;;;5112668;28;20377;-82
2022/11/29 00:57:39;;;;;;;;;;;;;;;;;;5092431;28;19916;-82
2022/11/29 01:00:04;;;;;;;;;;;;;;;;;;5087248;28;19916;-82
2022/11/29 01:02:29;;;;;;;;;;;;;;;;;;5087030;28;19956;-82
2022/11/29 01:04:55;;;;;;;;;;;;;;;;;;5087355;28;19919;-82
2022/11/29 01:07:20;;;;;;;;;;;;;;;;;;5084355;28;19919;-81
2022/11/29 01:09:45;;;;;;;;;;;;;;;;;;5106892;28;19918;-81
2022/11/29 01:12:10;;;;;;;;;;;;;;;;;;5105084;28;19951;-82
2022/11/29 01:14:35;;;;;;;;;;;;;;;;;;5091836;28;20011;-80
2022/11/29 01:17:00;;;;;;;;;;;;;;;;;;5092322;28;19916;-81
2022/11/29 01:19:25;;;;;;;;;;;;;;;;;;5093740;28;19912;-81
2022/11/29 01:21:53;;;;;;;;;;;;;;;;;;5091192;28;19916;-82
2022/11/29 01:24:21;;;;;;;;;;;;;;;;;;5094664;28;19911;-82
2022/11/29 01:26:46;;;;;;;;;;;;;;;;;;5093530;28;19965;-83
2022/11/29 01:29:14;;;;;;;;;;;;;;;;;;5091860;28;20086;-83
2022/11/29 01:31:39;;;;;;;;;;;;;;;;;;5107729;28;19969;-81
2022/11/29 01:34:04;;;;;;;;;;;;;;;;;;5109433;28;20362;-82
2022/11/29 01:36:29;;;;;;;;;;;;;;;;;;5094924;28;19918;-82
2022/11/29 01:38:55;;;;;;;;;;;;;;;;;;5090791;28;19965;-82
2022/11/29 01:41:20;;;;;;;;;;;;;;;;;;5091254;28;20397;-82
2022/11/29 01:43:45;;;;;;;;;;;;;;;;;;5093943;28;19912;-81
2022/11/29 01:46:10;;;;;;;;;;;;;;;;;;5091479;28;19915;-82
2022/11/29 01:48:35;;;;;;;;;;;;;;;;;;5093044;28;19954;-82
2022/11/29 01:51:00;;;;;;;;;;;;;;;;;;5092431;28;19916;-82
2022/11/29 01:53:25;;;;;;;;;;;;;;;;;;5092295;28;19920;-83
2022/11/29 01:55:51;;;;;;;;;;;;;;;;;;5094532;28;19996;-83
2022/11/29 01:58:16;;;;;;;;;;;;;;;;;;5090323;28;19919;-83
2022/11/29 02:00:41;;;;;;;;;;;;;;;;;;5094959;28;20025;-82
2022/11/29 02:03:06;;;;;;;;;;;;;;;;;;5093314;28;19919;-83
2022/11/29 02:05:31;;;;;;;;;;;;;;;;;;5091193;28;19912;-83
2022/11/29 02:07:56;;;;;;;;;;;;;;;;;;5095352;28;19981;-83
2022/11/29 02:10:21;;;;;;;;;;;;;;;;;;5094041;28;20369;-82
2022/11/29 02:12:47;;;;;;;;;;;;;;;;;;5093173;28;19920;-82
2022/11/29 02:15:12;;;;;;;;;;;;;;;;;;5089004;28;19994;-82
2022/11/29 02:17:37;;;;;;;;;;;;;;;;;;5089467;28;19912;-82
2022/11/29 02:20:05;;;;;;;;;;;;;;;;;;5109899;28;20332;-83
2022/11/29 02:22:30;;;;;;;;;;;;;;;;;;5093007;28;19966;-82
2022/11/29 02:24:55;;;;;;;;;;;;;;;;;;5110707;28;19947;-83
2022/11/29 02:27:24;;;;;;;;;;;;;;;;;;5090354;28;19916;-83
2022/11/29 02:29:49;;;;;;;;;;;;;;;;;;5091098;28;19957;-82
2022/11/29 02:32:14;;;;;;;;;;;;;;;;;;5095101;28;19916;-83
2022/11/29 02:34:39;;;;;;;;;;;;;;;;;;5091085;28;20304;-83
2022/11/29 02:37:07;;;;;;;;;;;;;;;;;;5093934;28;19962;-83
2022/11/29 02:39:33;;;;;;;;;;;;;;;;;;5082045;28;19922;-82
2022/11/29 02:41:58;;;;;;;;;;;;;;;;;;5091674;28;19911;-83
2022/11/29 02:44:23;;;;;;;;;;;;;;;;;;5091859;28;19919;-82
2022/11/29 02:46:48;;;;;;;;;;;;;;;;;;5107476;28;19999;-82
2022/11/29 02:49:13;;;;;;;;;;;;;;;;;;5093191;28;19962;-83
2022/11/29 02:51:38;;;;;;;;;;;;;;;;;;5093264;28;19919;-82
2022/11/29 02:54:03;;;;;;;;;;;;;;;;;;5088186;28;20361;-83
2022/11/29 02:56:28;;;;;;;;;;;;;;;;;;5090756;28;20161;-83
2022/11/29 02:58:54;;;;;;;;;;;;;;;;;;5092975;28;19994;-83
2022/11/29 03:01:19;;;;;;;;;;;;;;;;;;5092483;28;19923;-83
2022/11/29 03:03:44;;;;;;;;;;;;;;;;;;5094301;28;19912;-83
2022/11/29 03:06:09;;;;;;;;;;;;;;;;;;5091617;28;20432;-83
2022/11/29 03:08:34;;;;;;;;;;;;;;;;;;5093085;28;19924;-83
2022/11/29 03:11:00;;;;;;;;;;;;;;;;;;5092749;28;19976;-83
2022/11/29 03:13:25;;;;;;;;;;;;;;;;;;5090795;28;19912;-83
2022/11/29 03:15:50;;;;;;;;;;;;;;;;;;5089570;28;19919;-82
2022/11/29 03:18:15;;;;;;;;;;;;;;;;;;5089486;28;20282;-82
2022/11/29 03:20:41;;;;;;;;;;;;;;;;;;5088473;28;20285;-82
2022/11/29 03:23:06;;;;;;;;;;;;;;;;;;5093138;28;19912;-82
2022/11/29 03:25:31;;;;;;;;;;;;;;;;;;5091762;28;19965;-82
2022/11/29 03:27:56;;;;;;;;;;;;;;;;;;5090053;28;19916;-82
2022/11/29 03:30:21;;;;;;;;;;;;;;;;;;5090961;28;20008;-82
2022/11/29 03:32:47;;;;;;;;;;;;;;;;;;5092153;28;20364;-81
2022/11/29 03:35:12;;;;;;;;;;;;;;;;;;5091301;28;19961;-82
2022/11/29 03:37:37;;;;;;;;;;;;;;;;;;5091272;28;19912;-81
2022/11/29 03:40:02;;;;;;;;;;;;;;;;;;5109187;28;20326;-81
2022/11/29 03:42:27;;;;;;;;;;;;;;;;;;5091617;28;20002;-82
2022/11/29 03:44:52;;;;;;;;;;;;;;;;;;5086919;28;19920;-81
2022/11/29 03:47:18;;;;;;;;;;;;;;;;;;5103745;28;20373;-81
2022/11/29 03:49:43;;;;;;;;;;;;;;;;;;5090055;28;19966;-82
2022/11/29 03:52:08;;;;;;;;;;;;;;;;;;5091075;28;19955;-82
2022/11/29 03:54:34;;;;;;;;;;;;;;;;;;5083656;28;19915;-82
2022/11/29 03:57:02;;;;;;;;;;;;;;;;;;5088228;28;20002;-82
2022/11/29 03:59:27;;;;;;;;;;;;;;;;;;5079862;28;19919;-82
2022/11/29 04:01:52;;;;;;;;;;;;;;;;;;5092965;28;19911;-82
2022/11/29 04:04:17;;;;;;;;;;;;;;;;;;5092485;28;20002;-83
2022/11/29 04:06:42;;;;;;;;;;;;;;;;;;5091073;28;20258;-82
2022/11/29 04:09:11;;;;;;;;;;;;;;;;;;5084381;28;20014;-83
2022/11/29 04:11:36;;;;;;;;;;;;;;;;;;5090063;28;19919;-82
2022/11/29 04:14:01;;;;;;;;;;;;;;;;;;5108877;28;19982;-82
2022/11/29 04:16:30;;;;;;;;;;;;;;;;;;5092656;28;19912;-82
2022/11/29 04:18:55;;;;;;;;;;;;;;;;;;5092997;28;19907;-82
2022/11/29 04:21:20;;;;;;;;;;;;;;;;;;5104955;28;20305;-82
2022/11/29 04:23:46;;;;;;;;;;;;;;;;;;5084285;28;19912;-82
2022/11/29 04:26:11;;;;;;;;;;;;;;;;;;5091072;28;19912;-82
2022/11/29 04:28:36;;;;;;;;;;;;;;;;;;5082505;28;19922;-82
2022/11/29 04:31:01;;;;;;;;;;;;;;;;;;5087865;28;19923;-82
2022/11/29 04:33:26;;;;;;;;;;;;;;;;;;5085598;28;19912;-82
2022/11/29 04:35:51;;;;;;;;;;;;;;;;;;5083493;28;19920;-83
2022/11/29 04:38:17;;;;;;;;;;;;;;;;;;5091746;28;19919;-83
2022/11/29 04:40:42;;;;;;;;;;;;;;;;;;5089891;28;19942;-82
2022/11/29 04:43:07;;;;;;;;;;;;;;;;;;5106783;28;20385;-82
2022/11/29 04:45:32;;;;;;;;;;;;;;;;;;5092271;28;19912;-83
2022/11/29 04:47:57;;;;;;;;;;;;;;;;;;5109533;28;20365;-83
2022/11/29 04:50:22;;;;;;;;;;;;;;;;;;5092511;28;19926;-82
2022/11/29 04:52:50;;;;;;;;;;;;;;;;;;5106341;28;20334;-82
2022/11/29 04:55:15;;;;;;;;;;;;;;;;;;5086143;28;19912;-82
2022/11/29 04:57:41;;;;;;;;;;;;;;;;;;5091242;28;20010;-82
2022/11/29 05:00:07;;;;;;;;;;;;;;;;;;5089976;28;19918;-82
2022/11/29 05:02:32;;;;;;;;;;;;;;;;;;5088935;28;20373;-82
2022/11/29 05:04:57;;;;;;;;;;;;;;;;;;5090681;28;19946;-82
2022/11/29 05:07:22;;;;;;;;;;;;;;;;;;5090527;28;20377;-82
2022/11/29 05:09:48;;;;;;;;;;;;;;;;;;5086356;28;19912;-82
2022/11/29 05:12:13;;;;;;;;;;;;;;;;;;5086239;28;20374;-82
2022/11/29 05:14:38;;;;;;;;;;;;;;;;;;5091740;28;19981;-82
2022/11/29 05:17:03;;;;;;;;;;;;;;;;;;5091200;28;20281;-82
2022/11/29 05:19:28;;;;;;;;;;;;;;;;;;5089274;28;19965;-82
2022/11/29 05:21:53;;;;;;;;;;;;;;;;;;5093700;28;20014;-82
2022/11/29 05:24:18;;;;;;;;;;;;;;;;;;5090987;28;20327;-82
2022/11/29 05:26:44;;;;;;;;;;;;;;;;;;5088060;28;20257;-83
2022/11/29 05:29:09;;;;;;;;;;;;;;;;;;5084308;28;19908;-84
2022/11/29 05:31:34;;;;;;;;;;;;;;;;;;5107434;28;19972;-84
2022/11/29 05:33:59;;;;;;;;;;;;;;;;;;5104770;28;19923;-84
2022/11/29 05:36:24;;;;;;;;;;;;;;;;;;5087745;28;19919;-82
2022/11/29 05:38:49;;;;;;;;;;;;;;;;;;5093792;28;20373;-83
2022/11/29 05:41:14;;;;;;;;;;;;;;;;;;5089070;28;19912;-82
2022/11/29 05:43:40;;;;;;;;;;;;;;;;;;5088520;28;19912;-81
2022/11/29 05:46:05;;;;;;;;;;;;;;;;;;5094051;28;20262;-81
2022/11/29 05:48:30;;;;;;;;;;;;;;;;;;5088545;28;19965;-81
2022/11/29 05:50:55;;;;;;;;;;;;;;;;;;5081563;28;20084;-82
2022/11/29 05:53:20;;;;;;;;;;;;;;;;;;5084579;28;19919;-81
2022/11/29 05:55:45;;;;;;;;;;;;;;;;;;5086951;28;19962;-81
2022/11/29 05:58:11;;;;;;;;;;;;;;;;;;5086548;28;20354;-81
2022/11/29 06:00:36;;;;;;;;;;;;;;;;;;5084459;28;19911;-81
2022/11/29 06:03:02;;;;;;;;;;;;;;;;;;5103268;28;19916;-79
2022/11/29 06:05:27;;;;;;;;;;;;;;;;;;5084348;28;19939;-80
2022/11/29 06:07:52;;;;;;;;;;;;;;;;;;5085277;28;19924;-80
2022/11/29 06:10:17;;;;;;;;;;;;;;;;;;5091111;28;20006;-80
2022/11/29 06:12:42;;;;;;;;;;;;;;;;;;5085511;28;20279;-80
2022/11/29 06:15:09;;;;;;;;;;;;;;;;;;5076173;28;19956;-80
2022/11/29 06:17:34;;;;;;;;;;;;;;;;;;5080908;28;19916;-80
2022/11/29 06:19:59;;;;;;;;;;;;;;;;;;5095605;28;19923;-80
2022/11/29 06:22:25;;;;;;;;;;;;;;;;;;5112476;28;19907;-80
2022/11/29 06:24:50;;;;;;;;;;;;;;;;;;5093814;28;19922;-80
2022/11/29 06:27:15;;;;;;;;;;;;;;;;;;5114802;28;19918;-79
2022/11/29 06:29:40;;;;;;;;;;;;;;;;;;5093805;28;19920;-79
2022/11/29 06:32:07;;;;;;;;;;;;;;;;;;5096196;28;19912;-79
2022/11/29 06:34:32;;;;;;;;;;;;;;;;;;5093186;28;19923;-80
2022/11/29 06:36:57;;;;;;;;;;;;;;;;;;5095954;28;19907;-79
2022/11/29 06:39:23;;;;;;;;;;;;;;;;;;5093855;28;19912;-79
2022/11/29 06:41:48;;;;;;;;;;;;;;;;;;5091777;28;19915;-81
2022/11/29 06:44:13;;;;;;;;;;;;;;;;;;5091122;28;19916;-82
2022/11/29 06:46:38;;;;;;;;;;;;;;;;;;5095649;28;20002;-81
2022/11/29 06:49:03;;;;;;;;;;;;;;;;;;5113964;28;20053;-81
2022/11/29 06:51:29;;;;;;;;;;;;;;;;;;5095094;28;19919;-81
2022/11/29 06:53:54;;;;;;;;;;;;;;;;;;5093993;28;20281;-82
2022/11/29 06:56:19;;;;;;;;;;;;;;;;;;5095687;28;19914;-79
2022/11/29 06:58:44;;;;;;;;;;;;;;;;;;5113952;28;20370;-80
2022/11/29 07:01:10;;;;;;;;;;;;;;;;;;5112755;28;20301;-80
2022/11/29 07:03:35;;;;;;;;;;;;;;;;;;5094868;28;20276;-80
2022/11/29 07:06:00;;;;;;;;;;;;;;;;;;5092665;28;19961;-79
2022/11/29 07:08:25;;;;;;;;;;;;;;;;;;5110507;28;20300;-79
2022/11/29 07:10:51;;;;;;;;;;;;;;;;;;5096029;28;20265;-80
2022/11/29 07:13:17;;;;;;;;;;;;;;;;;;5088606;28;19912;-81
2022/11/29 07:15:42;;;;;;;;;;;;;;;;;;5092688;28;20339;-80
2022/11/29 07:18:07;;;;;;;;;;;;;;;;;;5114099;28;19908;-81
2022/11/29 07:20:32;;;;;;;;;;;;;;;;;;5094303;28;19920;-81
2022/11/29 07:22:57;;;;;;;;;;;;;;;;;;5093918;28;19916;-81
2022/11/29 07:25:22;;;;;;;;;;;;;;;;;;5094148;28;19951;-80
2022/11/29 07:27:47;;;;;;;;;;;;;;;;;;5094013;28;19915;-81
2022/11/29 07:30:13;;;;;;;;;;;;;;;;;;5094923;28;19915;-80
2022/11/29 07:32:38;;;;;;;;;;;;;;;;;;5112814;28;19912;-80
2022/11/29 07:35:03;;;;;;;;;;;;;;;;;;5094211;28;20320;-80
2022/11/29 07:37:28;;;;;;;;;;;;;;;;;;5094248;28;19919;-80
2022/11/29 07:39:53;;;;;;;;;;;;;;;;;;5112370;28;19916;-81
2022/11/29 07:42:18;;;;;;;;;;;;;;;;;;5091456;28;19948;-81
2022/11/29 07:44:44;;;;;;;;;;;;;;;;;;5092309;28;19912;-80
2022/11/29 07:47:09;;;;;;;;;;;;;;;;;;5093853;28;20350;-80
2022/11/29 07:49:34;;;;;;;;;;;;;;;;;;5094217;28;19919;-80
2022/11/29 07:51:59;;;;;;;;;;;;;;;;;;5095107;28;19951;-80
2022/11/29 07:54:24;;;;;;;;;;;;;;;;;;5110668;28;19912;-80
2022/11/29 07:56:49;;;;;;;;;;;;;;;;;;5095195;28;19950;-80
2022/11/29 07:59:15;;;;;;;;;;;;;;;;;;5092791;28;20006;-80
2022/11/29 08:01:40;;;;;;;;;;;;;;;;;;5093664;28;19915;-81
2022/11/29 08:04:05;;;;;;;;;;;;;;;;;;5098792;28;19912;-81
2022/11/29 08:06:30;;;;;;;;;;;;;;;;;;5083372;28;20484;-81
2022/11/29 08:08:56;;;;;;;;;;;;;;;;;;5104581;28;19998;-80
2022/11/29 08:11:21;;;;;;;;;;;;;;;;;;5107412;28;20301;-81
2022/11/29 08:13:46;;;;;;;;;;;;;;;;;;5092955;28;20420;-81
2022/11/29 08:16:11;;;;;;;;;;;;;;;;;;5092641;28;20269;-82
2022/11/29 08:18:36;;;;;;;;;;;;;;;;;;5094969;28;20377;-82
2022/11/29 08:21:01;;;;;;;;;;;;;;;;;;5094017;28;19907;-82
2022/11/29 08:23:27;;;;;;;;;;;;;;;;;;5112768;28;19908;-82
2022/11/29 08:25:52;;;;;;;;;;;;;;;;;;5093392;28;20000;-82
2022/11/29 08:28:17;;;;;;;;;;;;;;;;;;5093450;28;19911;-81
2022/11/29 08:30:42;;;;;;;;;;;;;;;;;;5093533;28;19929;-81
2022/11/29 08:33:07;;;;;;;;;;;;;;;;;;5079728;28;20285;-81
2022/11/29 08:35:32;;;;;;;;;;;;;;;;;;5093185;28;19923;-81
2022/11/29 08:37:57;;;;;;;;;;;;;;;;;;5110344;28;19951;-81
2022/11/29 08:40:23;;;;;;;;;;;;;;;;;;5092746;28;19937;-81
2022/11/29 08:42:48;;;;;;;;;;;;;;;;;;5086265;28;19915;-81
2022/11/29 08:45:13;;;;;;;;;;;;;;;;;;5093458;28;19916;-81
2022/11/29 08:47:40;;;;;;;;;;;;;;;;;;5091215;28;19916;-81
2022/11/29 08:50:06;;;;;;;;;;;;;;;;;;5093089;28;19961;-81
2022/11/29 08:55:15;;;;;;;;;;;;;;;;;;5107786;28;19957;-82
2022/11/29 08:57:40;;;;;;;;;;;;;;;;;;5093010;28;19916;-81
2022/11/29 09:00:05;;;;;;;;;;;;;;;;;;5091621;28;19943;-81
2022/11/29 09:02:30;;;;;;;;;;;;;;;;;;5091390;28;19907;-81
2022/11/29 09:04:55;;;;;;;;;;;;;;;;;;5092839;28;19912;-82
2022/11/29 09:07:21;;;;;;;;;;;;;;;;;;5097720;28;19916;-82
2022/11/29 09:09:47;;;;;;;;;;;;;;;;;;5095549;28;19923;-82
2022/11/29 09:12:12;;;;;;;;;;;;;;;;;;5079833;28;19919;-82
2022/11/29 09:14:37;;;;;;;;;;;;;;;;;;5074944;28;19919;-81
2022/11/29 09:17:02;;;;;;;;;;;;;;;;;;5077464;28;19908;-82
2022/11/29 09:19:27;;;;;;;;;;;;;;;;;;5092536;28;19919;-82
2022/11/29 09:21:52;;;;;;;;;;;;;;;;;;5071650;28;19912;-82
2022/11/29 09:24:19;;;;;;;;;;;;;;;;;;5076281;28;19958;-82
2022/11/29 09:26:47;;;;;;;;;;;;;;;;;;5077403;28;19915;-82
2022/11/29 09:29:12;;;;;;;;;;;;;;;;;;5072121;28;19916;-81
2022/11/29 09:31:37;;;;;;;;;;;;;;;;;;5072954;28;19927;-81
2022/11/29 09:34:02;;;;;;;;;;;;;;;;;;5094392;28;20010;-82
2022/11/29 09:36:27;;;;;;;;;;;;;;;;;;5076495;28;19912;-82
2022/11/29 09:38:55;;;;;;;;;;;;;;;;;;5076542;28;20007;-81
2022/11/29 09:41:21;;;;;;;;;;;;;;;;;;5071793;28;20006;-81
2022/11/29 09:43:46;;;;;;;;;;;;;;;;;;5062781;28;20003;-81
2022/11/29 09:46:14;;;;;;;;;;;;;;;;;;5076057;28;19977;-82
2022/11/29 09:48:40;;;;;;;;;;;;;;;;;;5076130;28;19962;-82
2022/11/29 09:51:05;;;;;;;;;;;;;;;;;;5071859;28;19912;-83
2022/11/29 09:53:30;;;;;;;;;;;;;;;;;;5077011;28;19912;-82
2022/11/29 09:55:55;;;;;;;;;;;;;;;;;;5076186;28;20385;-83
2022/11/29 09:58:20;;;;;;;;;;;;;;;;;;5075288;28;19919;-82
2022/11/29 10:00:46;;;;;;;;;;;;;;;;;;5074847;28;19914;-82
2022/11/29 10:03:11;;;;;;;;;;;;;;;;;;5092408;28;20003;-83
2022/11/29 10:05:36;;;;;;;;;;;;;;;;;;5076604;28;19912;-82
2022/11/29 10:08:01;;;;;;;;;;;;;;;;;;5074058;28;19916;-82
2022/11/29 10:10:26;;;;;;;;;;;;;;;;;;5076436;28;19931;-82
2022/11/29 10:12:51;;;;;;;;;;;;;;;;;;5107769;28;19973;-82
2022/11/29 10:15:17;;;;;;;;;;;;;;;;;;5093705;28;19915;-82
2022/11/29 10:17:42;;;;;;;;;;;;;;;;;;5095166;28;20091;-82
2022/11/29 10:20:07;;;;;;;;;;;;;;;;;;5109922;28;20492;-82
2022/11/29 10:22:32;;;;;;;;;;;;;;;;;;5092822;28;19950;-81
2022/11/29 10:24:57;;;;;;;;;;;;;;;;;;5093435;28;19912;-81
2022/11/29 10:27:23;;;;;;;;;;;;;;;;;;5096630;28;20357;-82
2022/11/29 10:29:50;;;;;;;;;;;;;;;;;;5095387;28;19998;-81
2022/11/29 10:32:15;;;;;;;;;;;;;;;;;;5093920;28;19919;-81
2022/11/29 10:34:41;;;;;;;;;;;;;;;;;;5092896;28;19911;-81
2022/11/29 10:37:06;;;;;;;;;;;;;;;;;;5092893;28;19916;-82
2022/11/29 10:39:31;;;;;;;;;;;;;;;;;;5112381;28;19908;-82
2022/11/29 10:41:56;;;;;;;;;;;;;;;;;;5094949;27;19911;-82
2022/11/29 10:44:21;;;;;;;;;;;;;;;;;;5091633;28;19916;-82
2022/11/29 10:46:46;;;;;;;;;;;;;;;;;;5108436;28;20365;-82
2022/11/29 10:49:12;;;;;;;;;;;;;;;;;;5085861;28;19993;-82
2022/11/29 10:51:37;;;;;;;;;;;;;;;;;;5096070;28;20002;-82
2022/11/29 10:54:02;;;;;;;;;;;;;;;;;;5091733;28;19912;-81
2022/11/29 10:56:29;;;;;;;;;;;;;;;;;;5111757;28;19919;-81
2022/11/29 10:58:55;;;;;;;;;;;;;;;;;;5113925;28;19908;-81
2022/11/29 11:01:20;;;;;;;;;;;;;;;;;;5094840;28;19938;-81
2022/11/29 11:03:45;;;;;;;;;;;;;;;;;;5094846;28;19912;-81
2022/11/29 11:06:10;;;;;;;;;;;;;;;;;;5091816;28;19911;-81
2022/11/29 11:08:35;;;;;;;;;;;;;;;;;;5094332;28;19916;-81
2022/11/29 11:11:00;;;;;;;;;;;;;;;;;;5095362;28;19919;-81
2022/11/29 11:13:26;;;;;;;;;;;;;;;;;;5077284;28;19964;-83
2022/11/29 11:15:51;;;;;;;;;;;;;;;;;;5071448;28;19915;-82
2022/11/29 11:18:16;;;;;;;;;;;;;;;;;;5087816;28;20354;-81
2022/11/29 11:20:42;;;;;;;;;;;;;;;;;;5094697;28;19912;-82
2022/11/29 11:23:07;;;;;;;;;;;;;;;;;;5095461;28;20289;-82
2022/11/29 11:25:35;;;;;;;;;;;;;;;;;;5091767;28;19916;-81
2022/11/29 11:28:01;;;;;;;;;;;;;;;;;;5104097;28;20289;-81
2022/11/29 11:30:26;;;;;;;;;;;;;;;;;;5076762;28;20277;-81
2022/11/29 11:32:51;;;;;;;;;;;;;;;;;;5092774;28;20378;-82
2022/11/29 11:35:16;;;;;;;;;;;;;;;;;;5084753;28;19919;-81
2022/11/29 11:37:41;;;;;;;;;;;;;;;;;;5079236;28;19919;-81
2022/11/29 11:40:06;;;;;;;;;;;;;;;;;;5089329;28;19965;-81
2022/11/29 11:42:37;;;;;;;;;;;;;;;;;;5082601;28;19923;-82
2022/11/29 11:45:03;;;;;;;;;;;;;;;;;;5086534;28;20331;-82
2022/11/29 11:47:28;;;;;;;;;;;;;;;;;;5082873;28;19916;-82
2022/11/29 11:49:53;;;;;;;;;;;;;;;;;;5089361;28;20290;-82
2022/11/29 11:52:18;;;;;;;;;;;;;;;;;;5075613;28;20402;-82
2022/11/29 11:54:43;;;;;;;;;;;;;;;;;;5074107;28;19912;-82
2022/11/29 11:57:08;;;;;;;;;;;;;;;;;;5078154;28;20026;-82
2022/11/29 11:59:33;;;;;;;;;;;;;;;;;;5073864;28;19926;-81
2022/11/29 12:01:58;;;;;;;;;;;;;;;;;;5072323;28;20267;-82
2022/11/29 12:04:24;;;;;;;;;;;;;;;;;;5072282;28;19913;-82
2022/11/29 12:06:50;;;;;;;;;;;;;;;;;;5074266;28;19966;-81
2022/11/29 12:09:18;;;;;;;;;;;;;;;;;;5071737;28;19924;-80
2022/11/29 12:11:43;;;;;;;;;;;;;;;;;;5095175;28;20446;-82
2022/11/29 12:14:08;;;;;;;;;;;;;;;;;;5093341;28;19947;-82
2022/11/29 12:16:33;;;;;;;;;;;;;;;;;;5091678;28;19973;-85
2022/11/29 12:18:58;;;;;;;;;;;;;;;;;;5086369;28;19920;-83
2022/11/29 12:21:23;;;;;;;;;;;;;;;;;;5098002;28;19908;-84
2022/11/29 12:23:48;;;;;;;;;;;;;;;;;;5088321;28;19912;-84
2022/11/29 12:26:14;;;;;;;;;;;;;;;;;;5081429;28;19922;-82
2022/11/29 12:28:39;;;;;;;;;;;;;;;;;;5089793;28;20365;-82
2022/11/29 12:31:04;;;;;;;;;;;;;;;;;;5094237;28;19929;-84
2022/11/29 12:33:29;;;;;;;;;;;;;;;;;;5083766;28;19916;-83
2022/11/29 12:35:54;;;;;;;;;;;;;;;;;;5093682;28;20011;-83
2022/11/29 12:38:19;;;;;;;;;;;;;;;;;;5084750;28;19913;-83
2022/11/29 12:40:44;;;;;;;;;;;;;;;;;;5093156;28;19916;-83
2022/11/29 12:43:10;;;;;;;;;;;;;;;;;;5086557;28;19982;-84
2022/11/29 12:45:35;;;;;;;;;;;;;;;;;;5113680;28;19912;-84
2022/11/29 12:48:00;;;;;;;;;;;;;;;;;;5090294;28;19920;-83
2022/11/29 12:50:25;;;;;;;;;;;;;;;;;;5078789;28;20362;-84
2022/11/29 12:52:50;;;;;;;;;;;;;;;;;;5096884;28;20007;-84
2022/11/29 12:55:15;;;;;;;;;;;;;;;;;;5103001;27;19911;-83
2022/11/29 12:57:40;;;;;;;;;;;;;;;;;;5137148;27;19912;-84
2022/11/29 13:00:06;;;;;;;;;;;;;;;;;;5098803;28;19912;-84
2022/11/29 13:02:32;;;;;;;;;;;;;;;;;;5098183;28;20365;-84
2022/11/29 13:04:57;;;;;;;;;;;;;;;;;;5088153;28;20467;-85
2022/11/29 13:07:22;;;;;;;;;;;;;;;;;;5077803;28;20313;-85
2022/11/29 13:09:49;;;;;;;;;;;;;;;;;;5103636;28;19912;-85
2022/11/29 13:12:15;;;;;;;;;;;;;;;;;;5089200;28;20334;-84
2022/11/29 13:14:40;;;;;;;;;;;;;;;;;;5096944;28;19915;-84
2022/11/29 13:17:05;;;;;;;;;;;;;;;;;;5114493;28;19912;-84
2022/11/29 13:19:30;;;;;;;;;;;;;;;;;;5097686;28;19912;-84
2022/11/29 13:21:55;;;;;;;;;;;;;;;;;;5091909;28;19912;-84
2022/11/29 13:24:20;;;;;;;;;;;;;;;;;;5096973;28;19934;-84
2022/11/29 13:26:45;;;;;;;;;;;;;;;;;;5105614;28;19920;-84
2022/11/29 13:29:10;;;;;;;;;;;;;;;;;;5086979;28;20471;-84
2022/11/29 13:31:36;;;;;;;;;;;;;;;;;;5077830;28;20428;-83
2022/11/29 13:34:01;;;;;;;;;;;;;;;;;;5096151;28;19934;-84
2022/11/29 13:36:26;;;;;;;;;;;;;;;;;;5093272;28;19916;-84
2022/11/29 13:38:51;;;;;;;;;;;;;;;;;;5077011;28;20030;-85
2022/11/29 13:41:16;;;;;;;;;;;;;;;;;;5084736;28;19962;-84
2022/11/29 13:43:41;;;;;;;;;;;;;;;;;;5093621;28;19998;-85
2022/11/29 13:46:07;;;;;;;;;;;;;;;;;;5114020;28;19912;-84
2022/11/29 13:48:33;;;;;;;;;;;;;;;;;;5115368;28;19912;-84
2022/11/29 13:50:58;;;;;;;;;;;;;;;;;;5094936;28;19992;-84
2022/11/29 13:53:23;;;;;;;;;;;;;;;;;;5103792;28;20018;-84
2022/11/29 13:55:49;;;;;;;;;;;;;;;;;;5095571;28;19908;-84
2022/11/29 13:58:14;;;;;;;;;;;;;;;;;;5115169;28;20338;-84
2022/11/29 14:00:39;;;;;;;;;;;;;;;;;;5095625;28;19907;-84
2022/11/29 14:03:04;;;;;;;;;;;;;;;;;;5095939;28;20297;-84
2022/11/29 14:05:29;;;;;;;;;;;;;;;;;;5095895;28;20373;-83
2022/11/29 14:07:54;;;;;;;;;;;;;;;;;;5114799;28;19927;-82
2022/11/29 14:10:19;;;;;;;;;;;;;;;;;;5096017;28;20350;-83
2022/11/29 14:12:44;;;;;;;;;;;;;;;;;;5110398;28;19970;-83
2022/11/29 14:15:10;;;;;;;;;;;;;;;;;;5095505;28;20254;-83
2022/11/29 14:17:35;;;;;;;;;;;;;;;;;;5095617;28;19908;-83
2022/11/29 14:20:00;;;;;;;;;;;;;;;;;;5096718;28;19950;-83
2022/11/29 14:22:25;;;;;;;;;;;;;;;;;;5077353;28;19912;-83
2022/11/29 14:24:50;;;;;;;;;;;;;;;;;;5086865;28;19920;-83
2022/11/29 14:27:15;;;;;;;;;;;;;;;;;;5091667;28;19911;-83
2022/11/29 14:29:41;;;;;;;;;;;;;;;;;;5095895;28;20320;-83
2022/11/29 14:32:06;;;;;;;;;;;;;;;;;;5094050;28;19923;-84
2022/11/29 14:34:31;;;;;;;;;;;;;;;;;;5092523;28;20312;-83
2022/11/29 14:36:56;;;;;;;;;;;;;;;;;;5092566;28;19916;-83
2022/11/29 14:39:21;;;;;;;;;;;;;;;;;;5094968;28;19919;-82
2022/11/29 14:41:47;;;;;;;;;;;;;;;;;;5079062;28;20425;-84
2022/11/29 14:44:12;;;;;;;;;;;;;;;;;;5091630;28;19996;-83
2022/11/29 14:46:37;;;;;;;;;;;;;;;;;;5095606;28;19912;-83
2022/11/29 14:49:02;;;;;;;;;;;;;;;;;;5081638;28;19919;-84
2022/11/29 14:51:27;;;;;;;;;;;;;;;;;;5107579;28;19915;-83
2022/11/29 14:53:52;;;;;;;;;;;;;;;;;;5094967;28;19908;-83
2022/11/29 14:56:18;;;;;;;;;;;;;;;;;;5087279;28;19911;-83
2022/11/29 14:58:43;;;;;;;;;;;;;;;;;;5093990;28;20003;-83
2022/11/29 15:01:08;;;;;;;;;;;;;;;;;;5095607;28;19915;-83
2022/11/29 15:03:33;;;;;;;;;;;;;;;;;;5094368;28;19931;-83
2022/11/29 15:05:58;;;;;;;;;;;;;;;;;;5089424;28;20297;-84
2022/11/29 15:08:23;;;;;;;;;;;;;;;;;;5106143;28;19923;-84
2022/11/29 15:10:49;;;;;;;;;;;;;;;;;;5102257;28;19989;-84
2022/11/29 15:13:14;;;;;;;;;;;;;;;;;;5085470;28;19916;-83
2022/11/29 15:15:39;;;;;;;;;;;;;;;;;;5087546;28;20018;-83
2022/11/29 15:18:04;;;;;;;;;;;;;;;;;;5095828;28;19908;-83
2022/11/29 15:20:29;;;;;;;;;;;;;;;;;;5094508;28;19912;-83
2022/11/29 15:23:04;;;;;;;;;;;;;;;;;;5104922;27;19967;-56
2022/11/29 15:25:30;;;;;;;;;;;;;;;;;;5111460;27;20386;-57
2022/11/29 15:27:55;;;;;;;;;;;;;;;;;;5081165;28;20034;-54
2022/11/29 15:30:20;;;;;;;;;;;;;;;;;;5096031;28;19912;-57
2022/11/29 15:32:46;;;;;;;;;;;;;;;;;;5103467;28;19919;-55
2022/11/29 15:35:11;;;;;;;;;;;;;;;;;;5086496;28;20003;-56
2022/11/29 15:37:36;;;;;;;;;;;;;;;;;;5079947;28;19905;-56
2022/11/29 15:40:02;;;;;;;;;;;;;;;;;;5100502;28;19912;-57
2022/11/29 15:42:27;;;;;;;;;;;;;;;;;;5087232;28;20002;-54
2022/11/29 15:44:52;;;;;;;;;;;;;;;;;;5097984;28;19911;-54
2022/11/29 15:47:17;;;;;;;;;;;;;;;;;;5118637;27;19913;-52
2022/11/29 15:49:42;;;;;;;;;;;;;;;;;;5089562;28;19908;-55
2022/11/29 15:52:09;;;;;;;;;;;;;;;;;;5090621;28;19912;-58
2022/11/29 15:54:34;;;;;;;;;;;;;;;;;;5090396;28;20003;-57
2022/11/29 15:56:59;;;;;;;;;;;;;;;;;;5081249;28;19999;-58
2022/11/29 15:59:25;;;;;;;;;;;;;;;;;;5091222;28;19909;-59
2022/11/29 16:01:50;;;;;;;;;;;;;;;;;;5086995;28;19934;-58
2022/11/29 16:04:15;;;;;;;;;;;;;;;;;;5088432;28;20293;-56
2022/11/29 16:06:40;;;;;;;;;;;;;;;;;;5087158;28;19948;-56
2022/11/29 16:09:05;;;;;;;;;;;;;;;;;;5086597;28;19920;-56
2022/11/29 16:11:30;;;;;;;;;;;;;;;;;;5084284;28;19908;-58
2022/11/29 16:13:56;;;;;;;;;;;;;;;;;;5086995;28;20021;-62
2022/11/29 16:16:21;;;;;;;;;;;;;;;;;;5089259;28;20330;-62
2022/11/29 16:18:46;;;;;;;;;;;;;;;;;;5085069;28;19909;-60
2022/11/29 16:21:11;;;;;;;;;;;;;;;;;;5087420;28;19916;-58
2022/11/29 16:23:36;;;;;;;;;;;;;;;;;;5088471;28;19915;-60
2022/11/29 16:26:01;;;;;;;;;;;;;;;;;;5087720;28;20007;-59
2022/11/29 16:28:26;;;;;;;;;;;;;;;;;;5085301;28;19917;-60
2022/11/29 16:30:52;;;;;;;;;;;;;;;;;;5089989;28;19949;-58
2022/11/29 16:33:17;;;;;;;;;;;;;;;;;;5080536;28;19908;-61
2022/11/29 16:35:42;;;;;;;;;;;;;;;;;;5071459;28;19992;-63
2022/11/29 16:38:07;;;;;;;;;;;;;;;;;;5073993;28;19924;-61